Time;durP1;ratioP1;P1;durP2;ratioP2;P2;SDS_P1;SDS_P2;PMS_P1;PMS_P2;Temp;Humidity;BMP_temperature;BMP_pressure;BME280_temperature;BME280_humidity;BME280_pressure;Samples;Min_cycle;Max_cycle;Signal;HPM_P1;HPM_P2
2023/08/15 00:00:37;;;;;;;7.10;6.23;;;19.40;99.90;;;;;;5136117;27;20259;-79
2023/08/15 00:03:03;;;;;;;7.30;6.70;;;19.40;99.90;;;;;;5161275;27;20199;-78
2023/08/15 00:05:30;;;;;;;7.03;6.40;;;19.40;99.90;;;;;;5140814;27;20173;-79
2023/08/15 00:07:55;;;;;;;7.47;6.87;;;19.40;99.90;;;;;;5140985;27;20173;-77
2023/08/15 00:10:21;;;;;;;7.33;6.50;;;19.40;99.90;;;;;;5140599;27;20206;-77
2023/08/15 00:12:47;;;;;;;7.10;6.50;;;19.40;99.90;;;;;;5140986;27;20176;-78
2023/08/15 00:15:13;;;;;;;7.30;6.70;;;19.40;99.90;;;;;;5137475;27;20166;-79
2023/08/15 00:17:39;;;;;;;7.43;6.83;;;19.40;99.90;;;;;;5139263;27;20201;-80
2023/08/15 00:20:06;;;;;;;7.83;6.60;;;19.40;99.90;;;;;;5141671;27;20169;-78
2023/08/15 00:22:32;;;;;;;7.70;7.10;;;19.50;99.90;;;;;;5143148;27;20169;-79
2023/08/15 00:24:58;;;;;;;7.20;6.53;;;19.40;99.90;;;;;;5151447;27;20184;-79
2023/08/15 00:27:23;;;;;;;7.20;6.70;;;19.50;99.90;;;;;;5159930;27;20162;-78
2023/08/15 00:29:49;;;;;;;6.87;6.27;;;19.50;99.90;;;;;;5159320;27;20165;-78
2023/08/15 00:32:15;;;;;;;9.07;6.40;;;19.40;99.90;;;;;;5159329;27;20161;-77
2023/08/15 00:34:41;;;;;;;6.73;6.23;;;19.50;99.90;;;;;;5145996;27;20185;-76
2023/08/15 00:37:07;;;;;;;7.10;6.50;;;19.10;99.90;;;;;;5158525;27;20583;-76
2023/08/15 00:39:32;;;;;;;6.70;6.10;;;19.40;99.90;;;;;;5153966;27;20188;-78
2023/08/15 00:41:58;;;;;;;6.23;5.83;;;19.40;99.90;;;;;;5159324;27;20189;-78
2023/08/15 00:44:24;;;;;;;6.30;5.90;;;19.40;99.90;;;;;;5150300;27;20185;-76
2023/08/15 00:46:50;;;;;;;6.47;5.97;;;19.40;99.90;;;;;;5137127;27;20173;-79
2023/08/15 00:49:16;;;;;;;6.47;6.00;;;19.30;99.90;;;;;;5136205;27;20177;-79
2023/08/15 00:51:42;;;;;;;6.23;5.83;;;19.30;99.90;;;;;;5149318;27;20169;-77
2023/08/15 00:54:08;;;;;;;7.00;5.97;;;19.20;99.90;;;;;;5148844;27;20225;-78
2023/08/15 00:56:34;;;;;;;6.93;6.33;;;19.20;99.90;;;;;;5136537;27;20316;-81
2023/08/15 00:59:01;;;;;;;5.97;5.57;;;19.20;99.90;;;;;;5134589;27;20211;-77
2023/08/15 01:01:26;;;;;;;6.60;6.10;;;19.10;99.90;;;;;;5136303;27;20169;-79
2023/08/15 01:03:53;;;;;;;6.97;6.47;;;19.10;99.90;;;;;;5135996;27;20189;-79
2023/08/15 01:06:18;;;;;;;8.90;5.97;;;19.00;99.90;;;;;;5136044;27;20534;-80
2023/08/15 01:08:44;;;;;;;6.33;5.83;;;19.00;99.90;;;;;;5135852;27;20256;-79
2023/08/15 01:11:10;;;;;;;6.37;5.97;;;18.90;99.90;;;;;;5135706;27;20165;-78
2023/08/15 01:13:47;;;;;;;6.60;5.90;;;19.00;99.90;;;;;;5135918;27;20241;-78
2023/08/15 01:16:37;;;;;;;9.07;6.43;;;18.90;99.90;;;;;;5137653;27;20168;-79
2023/08/15 01:19:40;;;;;;;6.80;6.30;;;19.00;99.90;;;;;;5136583;27;20218;-78
2023/08/15 01:22:21;;;;;;;6.63;6.13;;;19.00;99.90;;;;;;5136221;27;20167;-80
2023/08/15 01:24:48;;;;;;;6.97;6.47;;;19.00;99.90;;;;;;5134165;27;20647;-80
2023/08/15 01:27:14;;;;;;;7.30;6.70;;;19.00;99.90;;;;;;5139500;27;20169;-79
2023/08/15 01:29:40;;;;;;;7.23;6.53;;;19.00;99.90;;;;;;5149811;27;20172;-79
2023/08/15 01:32:42;;;;;;;7.10;6.40;;;19.00;99.90;;;;;;5137252;27;20601;-79
2023/08/15 01:35:19;;;;;;;6.93;6.33;;;19.00;99.90;;;;;;5134450;27;20874;-80
2023/08/15 01:37:54;;;;;;;6.80;6.30;;;19.00;99.90;;;;;;5134912;27;20284;-79
2023/08/15 01:40:22;;;;;;;8.50;6.83;;;19.00;99.90;;;;;;5159990;27;20208;-80
2023/08/15 01:42:50;;;;;;;6.83;6.33;;;19.00;99.90;;;;;;5139733;27;20612;-79
2023/08/15 01:45:17;;;;;;;7.73;6.97;;;19.00;99.90;;;;;;5143521;27;20193;-78
2023/08/15 01:47:43;;;;;;;9.80;6.37;;;18.90;99.90;;;;;;5145272;27;20216;-79
2023/08/15 01:50:09;;;;;;;6.43;6.03;;;18.80;99.90;;;;;;5159908;27;20176;-79
2023/08/15 01:52:35;;;;;;;7.33;6.60;;;18.80;99.90;;;;;;5138677;27;20184;-81
2023/08/15 01:55:01;;;;;;;7.03;6.50;;;18.80;99.90;;;;;;5136374;27;20526;-79
2023/08/15 01:57:27;;;;;;;6.77;6.27;;;18.70;99.90;;;;;;5135782;27;20196;-79
2023/08/15 01:59:53;;;;;;;6.73;6.13;;;18.60;99.90;;;;;;5135104;27;20260;-79
2023/08/15 02:02:18;;;;;;;6.50;5.90;;;18.60;99.90;;;;;;5134969;27;20165;-81
2023/08/15 02:04:44;;;;;;;6.57;6.17;;;18.60;99.90;;;;;;5134509;27;20188;-80
2023/08/15 02:07:10;;;;;;;6.43;5.93;;;18.50;99.90;;;;;;5134637;27;20204;-80
2023/08/15 02:09:35;;;;;;;6.63;6.13;;;18.00;99.90;;;;;;5134699;27;20165;-80
2023/08/15 02:12:01;;;;;;;7.03;6.53;;;18.60;99.90;;;;;;5134945;27;20628;-80
2023/08/15 02:14:27;;;;;;;7.13;6.63;;;18.50;99.90;;;;;;5134990;27;20173;-79
2023/08/15 02:16:53;;;;;;;7.57;6.97;;;18.50;99.90;;;;;;5135042;27;20181;-79
2023/08/15 02:19:18;;;;;;;6.80;6.20;;;18.50;99.90;;;;;;5135555;27;20278;-77
2023/08/15 02:21:44;;;;;;;7.60;6.93;;;18.50;99.90;;;;;;5135736;27;20187;-77
2023/08/15 02:24:10;;;;;;;7.67;6.53;;;18.50;99.90;;;;;;5138867;27;20180;-76
2023/08/15 02:26:36;;;;;;;7.03;6.43;;;18.40;99.90;;;;;;5139587;27;20207;-78
2023/08/15 02:29:03;;;;;;;7.10;6.53;;;18.40;99.90;;;;;;5138007;27;20180;-77
2023/08/15 02:31:30;;;;;;;7.40;6.80;;;18.40;99.90;;;;;;5135793;27;20169;-79
2023/08/15 02:33:56;;;;;;;7.10;6.60;;;18.40;99.90;;;;;;5144319;28;20169;-78
2023/08/15 02:36:21;;;;;;;7.57;6.97;;;18.30;99.90;;;;;;5149684;27;20180;-81
2023/08/15 02:38:47;;;;;;;7.00;6.47;;;18.30;99.90;;;;;;5134482;27;20686;-79
2023/08/15 02:41:13;;;;;;;8.43;7.30;;;18.30;99.90;;;;;;5134910;27;20167;-78
2023/08/15 02:43:39;;;;;;;7.33;6.63;;;18.30;99.90;;;;;;5137496;27;20202;-79
2023/08/15 02:46:05;;;;;;;7.97;7.27;;;18.30;99.90;;;;;;5134436;27;20181;-78
2023/08/15 02:48:30;;;;;;;7.10;6.60;;;18.30;99.90;;;;;;5134355;27;20174;-78
2023/08/15 02:50:56;;;;;;;7.43;6.83;;;18.30;99.90;;;;;;5134173;27;20177;-79
2023/08/15 02:53:22;;;;;;;7.30;6.70;;;18.30;99.90;;;;;;5134113;27;20177;-79
2023/08/15 02:55:51;;;;;;;7.07;6.57;;;18.30;99.90;;;;;;5134126;27;20217;-79
2023/08/15 02:58:17;;;;;;;6.97;6.33;;;18.20;99.90;;;;;;5133853;27;20212;-81
2023/08/15 03:00:43;;;;;;;7.27;6.43;;;18.20;99.90;;;;;;5134194;27;20168;-80
2023/08/15 03:03:09;;;;;;;7.17;6.60;;;18.20;99.90;;;;;;5133944;27;20232;-81
2023/08/15 03:05:39;;;;;;;6.53;5.97;;;18.10;99.90;;;;;;5149272;27;20165;-77
2023/08/15 03:08:05;;;;;;;5.90;5.50;;;18.20;99.90;;;;;;5148643;27;20186;-79
2023/08/15 03:10:36;;;;;;;6.37;5.97;;;18.10;99.90;;;;;;5138264;27;20256;-81
2023/08/15 03:13:03;;;;;;;6.50;6.00;;;18.10;99.90;;;;;;5137887;27;20203;-80
2023/08/15 03:15:29;;;;;;;6.87;6.27;;;18.00;99.90;;;;;;5138229;27;20651;-80
2023/08/15 03:17:56;;;;;;;7.03;6.43;;;17.90;99.90;;;;;;5162367;27;20205;-79
2023/08/15 03:20:22;;;;;;;7.20;6.50;;;17.80;99.90;;;;;;5140252;27;20176;-80
2023/08/15 03:22:48;;;;;;;7.20;6.53;;;17.80;99.90;;;;;;5137948;27;20260;-78
2023/08/15 03:25:14;;;;;;;6.27;5.87;;;17.90;99.90;;;;;;5142305;27;20238;-79
2023/08/15 03:27:39;;;;;;;6.37;5.87;;;17.80;99.90;;;;;;5146935;27;20172;-79
2023/08/15 03:30:06;;;;;;;7.37;6.67;;;17.80;99.90;;;;;;5136371;27;20180;-77
2023/08/15 03:32:32;;;;;;;7.77;7.17;;;17.80;99.90;;;;;;5137672;27;20524;-77
2023/08/15 03:34:57;;;;;;;7.40;6.77;;;17.70;99.90;;;;;;5137839;27;20182;-79
2023/08/15 03:37:23;;;;;;;7.07;6.50;;;17.70;99.90;;;;;;5137730;27;20185;-78
2023/08/15 03:39:49;;;;;;;7.50;6.90;;;17.70;99.90;;;;;;5137731;27;20173;-80
2023/08/15 03:42:15;;;;;;;6.67;6.17;;;17.70;99.90;;;;;;5137320;27;20583;-76
2023/08/15 03:44:40;;;;;;;6.77;6.27;;;17.80;99.90;;;;;;5137235;27;20174;-77
2023/08/15 03:47:06;;;;;;;6.90;6.40;;;17.70;99.90;;;;;;5137492;27;20173;-79
2023/08/15 03:49:32;;;;;;;7.13;6.40;;;17.60;99.90;;;;;;5137281;27;20165;-77
2023/08/15 03:51:58;;;;;;;7.43;6.93;;;17.60;99.90;;;;;;5137228;27;20218;-78
2023/08/15 03:54:23;;;;;;;7.30;6.70;;;17.60;99.90;;;;;;5137267;27;20259;-82
2023/08/15 03:56:49;;;;;;;7.07;6.33;;;17.60;99.90;;;;;;5135814;27;20246;-79
2023/08/15 03:59:15;;;;;;;7.33;6.63;;;17.60;99.90;;;;;;5138380;27;20211;-78
2023/08/15 04:01:40;;;;;;;9.80;7.17;;;17.60;99.90;;;;;;5137651;27;20165;-79
2023/08/15 04:04:07;;;;;;;7.53;6.83;;;17.60;99.90;;;;;;5137051;27;20534;-79
2023/08/15 04:06:32;;;;;;;7.53;7.00;;;17.70;99.90;;;;;;5137164;27;20193;-80
2023/08/15 04:08:58;;;;;;;8.37;7.10;;;17.70;99.90;;;;;;5137134;27;20196;-78
2023/08/15 04:11:24;;;;;;;7.40;6.90;;;17.70;99.90;;;;;;5137442;27;20169;-79
2023/08/15 04:13:50;;;;;;;8.23;7.63;;;17.70;99.90;;;;;;5138207;27;20191;-79
2023/08/15 04:16:16;;;;;;;8.27;7.57;;;17.80;99.90;;;;;;5145065;27;20172;-76
2023/08/15 04:18:41;;;;;;;7.70;7.10;;;17.80;99.90;;;;;;5151211;27;20608;-77
2023/08/15 04:21:07;;;;;;;8.20;7.53;;;17.80;99.90;;;;;;5141099;27;20185;-80
2023/08/15 04:23:33;;;;;;;9.40;7.87;;;17.90;99.90;;;;;;5141354;27;20176;-78
2023/08/15 04:25:59;;;;;;;8.37;7.57;;;18.00;99.90;;;;;;5140434;27;20184;-77
2023/08/15 04:28:24;;;;;;;7.90;7.30;;;18.00;99.90;;;;;;5138872;27;20177;-76
2023/08/15 04:30:50;;;;;;;7.80;7.20;;;18.00;99.90;;;;;;5142547;27;20196;-79
2023/08/15 04:33:16;;;;;;;8.00;7.30;;;18.00;99.90;;;;;;5136395;27;20522;-77
2023/08/15 04:35:42;;;;;;;7.80;7.10;;;18.00;99.90;;;;;;5136554;27;20230;-78
2023/08/15 04:38:08;;;;;;;7.63;6.73;;;18.00;99.90;;;;;;5136076;27;20660;-76
2023/08/15 04:40:40;;;;;;;7.53;6.93;;;18.00;99.90;;;;;;5136341;27;20183;-76
2023/08/15 04:43:06;;;;;;;7.73;7.13;;;18.00;99.90;;;;;;5145412;27;20164;-77
2023/08/15 04:45:32;;;;;;;7.87;7.20;;;18.00;99.90;;;;;;5149142;27;20175;-77
2023/08/15 04:47:58;;;;;;;7.00;6.50;;;18.00;99.90;;;;;;5137883;27;20169;-76
2023/08/15 04:50:24;;;;;;;7.40;6.90;;;18.10;99.90;;;;;;5137563;27;20181;-77
2023/08/15 04:52:50;;;;;;;7.87;6.70;;;18.10;99.90;;;;;;5136165;27;20526;-80
2023/08/15 04:55:16;;;;;;;6.97;6.47;;;18.10;99.90;;;;;;5152141;27;20220;-82
2023/08/15 04:57:42;;;;;;;7.47;6.97;;;18.00;99.90;;;;;;5147989;27;20169;-79
2023/08/15 05:00:10;;;;;;;7.27;6.77;;;18.00;99.90;;;;;;5138661;27;20177;-78
2023/08/15 05:02:36;;;;;;;7.10;6.60;;;18.00;99.90;;;;;;5141497;27;20644;-78
2023/08/15 05:05:09;;;;;;;7.17;6.67;;;18.00;99.90;;;;;;5145226;27;20218;-80
2023/08/15 05:07:35;;;;;;;6.77;6.33;;;18.10;99.90;;;;;;5137792;27;20153;-79
2023/08/15 05:10:01;;;;;;;7.10;6.60;;;18.10;99.90;;;;;;5135671;27;20200;-75
2023/08/15 05:12:27;;;;;;;8.30;7.60;;;18.20;99.90;;;;;;5135642;27;20210;-78
2023/08/15 05:14:53;;;;;;;7.60;6.60;;;18.20;99.90;;;;;;5135440;27;20173;-80
2023/08/15 05:17:19;;;;;;;7.30;6.60;;;18.30;99.90;;;;;;5135518;27;20165;-79
2023/08/15 05:19:45;;;;;;;7.30;6.80;;;18.30;99.90;;;;;;5134989;27;20346;-78
2023/08/15 05:22:10;;;;;;;7.67;6.97;;;18.40;99.90;;;;;;5135287;27;20196;-80
2023/08/15 05:24:36;;;;;;;7.97;7.30;;;18.50;99.90;;;;;;5135191;27;20165;-79
2023/08/15 05:27:02;;;;;;;7.70;7.03;;;18.50;99.90;;;;;;5135138;27;20655;-80
2023/08/15 05:29:28;;;;;;;7.80;7.20;;;18.50;99.90;;;;;;5135345;27;20654;-78
2023/08/15 05:31:55;;;;;;;7.43;6.93;;;18.60;99.90;;;;;;5135391;27;20224;-79
2023/08/15 05:34:21;;;;;;;7.20;6.50;;;18.80;99.90;;;;;;5147867;27;20177;-75
2023/08/15 05:36:48;;;;;;;7.10;6.60;;;18.80;99.90;;;;;;5151309;27;20246;-81
2023/08/15 05:39:13;;;;;;;7.40;6.80;;;18.80;99.90;;;;;;5137401;27;20219;-78
2023/08/15 05:41:39;;;;;;;7.43;6.70;;;18.90;99.90;;;;;;5136017;27;20165;-78
2023/08/15 05:44:05;;;;;;;7.90;7.20;;;19.00;99.90;;;;;;5135284;27;20180;-79
2023/08/15 05:46:31;;;;;;;7.17;6.57;;;19.10;99.90;;;;;;5135696;27;20165;-80
2023/08/15 05:48:57;;;;;;;7.80;7.20;;;19.20;99.90;;;;;;5135362;27;20261;-80
2023/08/15 05:51:22;;;;;;;7.23;6.67;;;19.20;99.90;;;;;;5147767;27;20169;-78
2023/08/15 05:53:48;;;;;;;7.60;7.00;;;19.20;99.90;;;;;;5139060;27;20181;-79
2023/08/15 05:56:14;;;;;;;6.63;6.03;;;19.30;99.90;;;;;;5135732;27;20222;-79
2023/08/15 05:58:41;;;;;;;8.63;6.77;;;19.30;99.90;;;;;;5142073;27;20285;-78
2023/08/15 06:01:07;;;;;;;7.40;6.80;;;19.40;99.90;;;;;;5151186;27;20173;-79
2023/08/15 06:03:33;;;;;;;7.33;6.60;;;19.50;99.90;;;;;;5135374;27;20173;-79
2023/08/15 06:05:58;;;;;;;7.40;6.80;;;19.50;99.90;;;;;;5134110;27;20177;-80
2023/08/15 06:08:24;;;;;;;7.07;6.47;;;19.60;99.90;;;;;;5135249;27;20620;-79
2023/08/15 06:10:50;;;;;;;6.63;6.13;;;19.60;99.90;;;;;;5135044;27;20177;-80
2023/08/15 06:13:16;;;;;;;7.23;6.63;;;19.60;99.90;;;;;;5135058;27;20202;-78
2023/08/15 06:15:41;;;;;;;7.03;6.43;;;19.70;99.90;;;;;;5136391;27;20262;-79
2023/08/15 06:18:07;;;;;;;7.10;6.60;;;19.80;99.90;;;;;;5139860;27;20285;-79
2023/08/15 06:20:34;;;;;;;7.13;6.43;;;19.90;99.90;;;;;;5139844;27;20196;-79
2023/08/15 06:23:00;;;;;;;7.33;6.77;;;19.80;99.90;;;;;;5147820;27;20764;-79
2023/08/15 06:25:25;;;;;;;6.90;6.30;;;19.90;99.90;;;;;;5135271;28;20177;-80
2023/08/15 06:27:51;;;;;;;6.97;6.37;;;20.00;99.90;;;;;;5135308;27;20169;-75
2023/08/15 06:30:17;;;;;;;6.90;6.37;;;20.00;99.90;;;;;;5133613;28;20173;-77
2023/08/15 06:32:45;;;;;;;8.20;6.87;;;20.10;99.90;;;;;;5144273;27;20153;-80
2023/08/15 06:35:11;;;;;;;6.80;6.30;;;20.10;99.90;;;;;;5150914;27;20193;-78
2023/08/15 06:37:36;;;;;;;7.57;6.60;;;20.20;99.90;;;;;;5137247;27;20165;-78
2023/08/15 06:40:03;;;;;;;7.13;6.30;;;20.30;99.90;;;;;;5141830;27;20173;-80
2023/08/15 06:42:29;;;;;;;6.77;6.17;;;20.30;99.90;;;;;;5136185;27;20212;-79
2023/08/15 06:45:11;;;;;;;7.53;6.83;;;20.30;99.90;;;;;;5139750;27;20212;-77
2023/08/15 06:47:37;;;;;;;6.80;6.20;;;20.40;99.90;;;;;;5138499;27;20255;-77
2023/08/15 06:50:06;;;;;;;6.63;6.13;;;20.60;99.90;;;;;;5138323;27;20226;-76
2023/08/15 06:52:32;;;;;;;6.83;6.13;;;20.60;99.90;;;;;;5140438;27;20169;-78
2023/08/15 06:54:58;;;;;;;7.20;6.60;;;20.70;99.90;;;;;;5140013;27;20165;-78
2023/08/15 06:57:24;;;;;;;7.40;6.70;;;21.10;99.90;;;;;;5137114;27;20239;-78
2023/08/15 06:59:50;;;;;;;6.83;6.33;;;20.90;99.90;;;;;;5138307;27;20209;-79
2023/08/15 07:02:16;;;;;;;7.07;6.00;;;20.90;99.90;;;;;;5137338;27;20188;-79
2023/08/15 07:04:41;;;;;;;6.97;6.40;;;21.00;99.90;;;;;;5138569;27;20192;-80
2023/08/15 07:07:08;;;;;;;6.80;6.30;;;21.10;99.90;;;;;;5138742;27;20173;-77
2023/08/15 07:09:35;;;;;;;7.13;6.50;;;21.30;99.90;;;;;;5138890;27;20211;-77
2023/08/15 07:12:05;;;;;;;6.80;6.30;;;21.30;99.90;;;;;;5138895;27;20687;-76
2023/08/15 07:14:33;;;;;;;7.13;6.53;;;21.40;99.90;;;;;;5152344;27;20161;-78
2023/08/15 07:17:00;;;;;;;6.70;6.20;;;21.50;99.90;;;;;;5138444;27;20165;-78
2023/08/15 07:19:26;;;;;;;6.00;5.60;;;21.60;99.90;;;;;;5136977;27;20205;-79
2023/08/15 07:21:52;;;;;;;6.33;5.83;;;21.70;99.90;;;;;;5143798;27;20184;-78
2023/08/15 07:24:18;;;;;;;6.67;6.17;;;21.80;99.90;;;;;;5161365;27;20174;-78
2023/08/15 07:26:45;;;;;;;6.10;5.70;;;21.90;99.90;;;;;;5162406;27;20193;-76
2023/08/15 07:29:12;;;;;;;6.87;6.30;;;22.00;99.90;;;;;;5147898;27;20255;-77
2023/08/15 07:31:38;;;;;;;6.67;6.20;;;22.00;99.90;;;;;;5140193;27;20169;-78
2023/08/15 07:34:03;;;;;;;6.50;5.90;;;22.10;99.90;;;;;;5139466;27;20628;-79
2023/08/15 07:36:29;;;;;;;6.63;6.13;;;22.20;99.90;;;;;;5138261;27;20222;-80
2023/08/15 07:38:56;;;;;;;6.20;5.57;;;22.30;99.90;;;;;;5139420;27;20236;-77
2023/08/15 07:41:22;;;;;;;6.67;6.10;;;22.40;99.90;;;;;;5146379;27;20188;-79
2023/08/15 07:43:48;;;;;;;6.22;5.68;;;22.50;99.90;;;;;;5142803;27;20259;-78
2023/08/15 07:46:14;;;;;;;6.67;5.97;;;22.60;99.90;;;;;;5137793;27;20576;-78
2023/08/15 07:48:39;;;;;;;6.40;5.87;;;22.60;99.90;;;;;;5137749;27;20215;-79
2023/08/15 07:51:05;;;;;;;6.17;5.53;;;22.70;99.90;;;;;;5137607;27;20173;-79
2023/08/15 07:53:31;;;;;;;7.18;5.57;;;22.90;99.90;;;;;;5136217;27;20530;-78
2023/08/15 07:55:57;;;;;;;6.30;5.70;;;23.00;99.90;;;;;;5136790;27;20220;-77
2023/08/15 07:58:23;;;;;;;6.30;5.70;;;23.10;99.90;;;;;;5140136;27;20232;-76
2023/08/15 08:00:49;;;;;;;5.90;5.50;;;23.10;99.90;;;;;;5145251;27;20199;-78
2023/08/15 08:03:14;;;;;;;6.05;5.63;;;23.20;99.90;;;;;;5138966;27;20169;-78
2023/08/15 08:05:42;;;;;;;6.38;5.88;;;23.40;99.90;;;;;;5138382;27;20257;-78
2023/08/15 08:08:08;;;;;;;5.38;5.07;;;23.50;99.90;;;;;;5138995;27;20204;-77
2023/08/15 08:10:34;;;;;;;6.47;5.45;;;23.60;99.90;;;;;;5152171;27;20161;-79
2023/08/15 08:13:00;;;;;;;6.15;5.65;;;23.70;99.90;;;;;;5151214;27;20211;-77
2023/08/15 08:15:28;;;;;;;6.28;5.30;;;23.80;99.90;;;;;;5140885;27;20177;-79
2023/08/15 08:17:54;;;;;;;6.75;5.43;;;23.90;99.90;;;;;;5141269;27;20252;-78
2023/08/15 08:20:21;;;;;;;6.13;5.68;;;24.00;99.90;;;;;;5141055;27;20218;-77
2023/08/15 08:22:47;;;;;;;6.13;5.60;;;24.10;99.90;;;;;;5138431;27;20658;-78
2023/08/15 08:25:21;;;;;;;6.03;5.45;;;24.20;99.90;;;;;;5137214;27;20177;-80
2023/08/15 08:27:48;;;;;;;5.25;4.90;;;24.20;99.90;;;;;;5136640;27;20165;-79
2023/08/15 08:30:17;;;;;;;5.72;5.32;;;24.30;99.90;;;;;;5137219;27;20705;-77
2023/08/15 08:32:43;;;;;;;5.60;5.20;;;24.40;99.90;;;;;;5137534;27;20180;-77
2023/08/15 08:35:10;;;;;;;5.93;5.43;;;24.40;99.90;;;;;;5145533;27;20196;-78
2023/08/15 08:37:36;;;;;;;5.53;5.13;;;24.40;99.90;;;;;;5139365;27;20172;-78
2023/08/15 08:40:07;;;;;;;5.85;5.45;;;24.50;99.90;;;;;;5136678;27;20173;-78
2023/08/15 08:42:34;;;;;;;6.15;5.55;;;24.50;99.90;;;;;;5135451;27;20165;-78
2023/08/15 08:45:01;;;;;;;5.70;5.35;;;24.60;99.90;;;;;;5137147;27;20252;-79
2023/08/15 08:47:30;;;;;;;5.60;5.20;;;24.60;99.90;;;;;;5136927;27;20177;-78
2023/08/15 08:49:59;;;;;;;5.95;5.45;;;24.60;99.90;;;;;;5137593;27;20166;-80
2023/08/15 08:52:26;;;;;;;5.57;5.28;;;24.60;99.90;;;;;;5139416;27;20177;-79
2023/08/15 08:54:52;;;;;;;5.50;5.20;;;24.60;99.90;;;;;;5136579;27;20185;-78
2023/08/15 08:57:19;;;;;;;5.63;5.13;;;24.60;99.90;;;;;;5136561;27;20216;-77
2023/08/15 08:59:46;;;;;;;5.75;5.45;;;24.70;99.90;;;;;;5136697;27;20216;-79
2023/08/15 09:02:19;;;;;;;6.25;5.80;;;24.70;99.90;;;;;;5136134;27;20167;-80
2023/08/15 09:04:47;;;;;;;5.78;5.38;;;24.90;99.90;;;;;;5136323;27;20184;-79
2023/08/15 09:07:14;;;;;;;6.00;5.60;;;25.00;99.90;;;;;;5136697;27;20194;-78
2023/08/15 09:09:39;;;;;;;6.03;5.63;;;25.10;99.90;;;;;;5136703;27;20165;-79
2023/08/15 09:12:06;;;;;;;5.95;5.45;;;25.30;99.90;;;;;;5137543;27;20615;-80
2023/08/15 09:14:32;;;;;;;5.60;5.10;;;25.40;99.90;;;;;;5144944;27;20223;-78
2023/08/15 09:16:58;;;;;;;5.93;5.53;;;25.40;99.90;;;;;;5156476;27;20185;-79
2023/08/15 09:19:24;;;;;;;5.07;4.78;;;25.40;99.90;;;;;;5151542;27;20683;-81
2023/08/15 09:21:50;;;;;;;5.25;4.95;;;25.60;99.90;;;;;;5142492;27;20172;-79
2023/08/15 09:24:16;;;;;;;5.32;4.93;;;25.60;99.90;;;;;;5144074;27;20180;-79
2023/08/15 09:26:41;;;;;;;5.05;4.72;;;25.50;99.90;;;;;;5141839;27;20234;-80
2023/08/15 09:29:07;;;;;;;4.82;4.53;;;25.60;99.90;;;;;;5136375;27;20200;-80
2023/08/15 09:31:34;;;;;;;5.72;4.93;;;25.60;99.90;;;;;;5136321;27;20165;-79
2023/08/15 09:34:00;;;;;;;6.03;5.53;;;25.70;99.90;;;;;;5138700;27;20256;-80
2023/08/15 09:36:26;;;;;;;5.72;5.30;;;25.70;99.90;;;;;;5137880;27;20193;-82
2023/08/15 09:38:58;;;;;;;5.13;4.72;;;25.70;99.90;;;;;;5142793;27;20204;-77
2023/08/15 09:41:27;;;;;;;6.00;5.50;;;25.60;99.90;;;;;;5137506;27;20158;-78
2023/08/15 09:43:54;;;;;;;5.30;4.88;;;25.60;99.90;;;;;;5135756;27;20199;-79
2023/08/15 09:46:21;;;;;;;5.18;4.88;;;25.60;99.90;;;;;;5135181;27;20165;-79
2023/08/15 09:48:48;;;;;;;5.90;5.38;;;25.60;99.90;;;;;;5152821;27;20171;-79
2023/08/15 09:51:15;;;;;;;4.63;4.38;;;25.60;99.90;;;;;;5141773;27;20169;-78
2023/08/15 09:53:46;;;;;;;4.82;4.53;;;25.60;99.90;;;;;;5138433;27;20172;-79
2023/08/15 09:56:12;;;;;;;5.32;4.95;;;25.80;99.90;;;;;;5134458;27;20250;-79
2023/08/15 09:58:38;;;;;;;5.15;4.85;;;25.80;99.90;;;;;;5147914;27;20200;-79
2023/08/15 10:01:07;;;;;;;4.93;4.22;;;25.80;99.90;;;;;;5136205;27;20756;-78
2023/08/15 10:03:35;;;;;;;5.03;4.70;;;25.70;99.90;;;;;;5133656;27;20261;-77
2023/08/15 10:06:02;;;;;;;5.25;4.95;;;25.70;99.90;;;;;;5134789;27;20214;-77
2023/08/15 10:08:29;;;;;;;5.55;5.15;;;25.80;99.90;;;;;;5134890;27;20188;-78
2023/08/15 10:10:58;;;;;;;5.25;4.85;;;25.90;99.90;;;;;;5135013;27;20184;-79
2023/08/15 10:13:36;;;;;;;5.75;4.80;;;26.00;99.90;;;;;;5134587;27;20271;-79
2023/08/15 10:16:04;;;;;;;5.13;4.75;;;26.00;99.90;;;;;;5133490;27;20226;-79
2023/08/15 10:18:31;;;;;;;5.68;5.15;;;26.00;99.90;;;;;;5137204;27;20284;-80
2023/08/15 10:20:58;;;;;;;4.90;4.60;;;26.00;99.90;;;;;;5138345;27;20518;-81
2023/08/15 10:23:31;;;;;;;4.82;4.53;;;26.00;99.90;;;;;;5137681;27;20564;-80
2023/08/15 10:25:58;;;;;;;5.22;4.88;;;26.00;99.90;;;;;;5134991;27;20174;-80
2023/08/15 10:28:27;;;;;;;5.78;5.38;;;26.00;99.90;;;;;;5134654;27;20173;-80
2023/08/15 10:30:53;;;;;;;5.70;5.28;;;26.20;99.90;;;;;;5134582;27;20203;-80
2023/08/15 10:33:22;;;;;;;5.80;5.30;;;26.30;99.90;;;;;;5134467;27;20217;-80
2023/08/15 10:35:55;;;;;;;5.97;5.32;;;26.40;99.90;;;;;;5135125;27;20161;-82
2023/08/15 10:38:39;;;;;;;5.43;5.00;;;26.40;99.90;;;;;;5140948;27;20197;-80
2023/08/15 10:41:15;;;;;;;5.20;4.90;;;26.40;99.90;;;;;;5153217;28;20165;-80
2023/08/15 10:43:49;;;;;;;5.68;5.35;;;26.40;99.90;;;;;;5152140;27;20244;-77
2023/08/15 10:46:17;;;;;;;5.53;5.22;;;26.40;99.90;;;;;;5156702;27;20162;-80
2023/08/15 10:48:48;;;;;;;6.47;5.63;;;26.50;99.90;;;;;;5156491;27;20228;-78
2023/08/15 10:51:17;;;;;;;8.25;7.53;;;26.60;99.90;;;;;;5156132;27;20493;-82
2023/08/15 10:53:46;;;;;;;6.25;5.78;;;26.60;99.90;;;;;;5154755;27;20180;-79
2023/08/15 10:56:12;;;;;;;6.07;5.57;;;26.70;99.90;;;;;;5154561;28;20232;-80
2023/08/15 10:58:38;;;;;;;5.82;5.43;;;26.70;99.90;;;;;;5152466;28;20212;-77
2023/08/15 11:01:04;;;;;;;5.82;5.43;;;26.80;99.90;;;;;;5143237;27;20169;-79
2023/08/15 11:03:31;;;;;;;5.75;5.20;;;26.90;99.90;;;;;;5138354;27;20166;-78
2023/08/15 11:06:11;;;;;;;6.13;5.72;;;26.80;99.90;;;;;;5138815;27;20188;-77
2023/08/15 11:08:47;;;;;;;5.95;5.55;;;26.70;99.90;;;;;;5141365;27;20241;-76
2023/08/15 11:11:14;;;;;;;6.50;6.00;;;26.80;99.90;;;;;;5143323;27;20153;-75
2023/08/15 11:13:41;;;;;;;6.47;5.47;;;26.80;99.90;;;;;;5141768;27;20169;-79
2023/08/15 11:16:09;;;;;;;5.63;5.20;;;26.80;99.90;;;;;;5136052;27;20166;-78
2023/08/15 11:18:37;;;;;;;5.45;5.03;;;26.90;99.90;;;;;;5136114;27;20280;-78
2023/08/15 11:21:07;;;;;;;5.85;5.45;;;27.00;99.90;;;;;;5139241;27;20214;-79
2023/08/15 11:23:33;;;;;;;6.03;5.55;;;27.20;99.90;;;;;;5148256;27;20165;-82
2023/08/15 11:26:07;;;;;;;6.13;5.60;;;27.20;99.90;;;;;;5149003;27;20181;-82
2023/08/15 11:28:33;;;;;;;5.25;4.95;;;27.20;99.90;;;;;;5138171;27;20157;-80
2023/08/15 11:31:00;;;;;;;5.75;5.35;;;27.20;99.90;;;;;;5139222;27;20179;-78
2023/08/15 11:33:29;;;;;;;6.15;5.75;;;27.40;99.90;;;;;;5137545;27;20174;-80
2023/08/15 11:35:55;;;;;;;5.97;5.53;;;27.40;99.90;;;;;;5137622;27;20208;-78
2023/08/15 11:38:21;;;;;;;5.55;5.15;;;27.40;99.90;;;;;;5137415;27;20205;-79
2023/08/15 11:40:47;;;;;;;5.68;5.38;;;27.40;99.90;;;;;;5136267;27;20169;-78
2023/08/15 11:43:13;;;;;;;9.13;8.32;;;27.50;99.90;;;;;;5137679;27;20580;-78
2023/08/15 11:45:43;;;;;;;6.50;6.00;;;27.50;99.90;;;;;;5137445;27;20621;-78
2023/08/15 11:48:09;;;;;;;6.38;5.78;;;27.50;99.90;;;;;;5137401;27;20189;-78
2023/08/15 11:50:35;;;;;;;5.88;5.38;;;27.50;99.90;;;;;;5137262;27;20724;-80
2023/08/15 11:53:08;;;;;;;5.95;5.45;;;27.40;99.90;;;;;;5137200;27;20164;-77
2023/08/15 11:55:35;;;;;;;5.60;5.30;;;27.50;99.90;;;;;;5135924;27;20771;-80
2023/08/15 11:58:02;;;;;;;6.28;5.88;;;27.40;99.90;;;;;;5137267;27;20169;-80
2023/08/15 12:00:28;;;;;;;5.78;5.38;;;27.40;99.90;;;;;;5135856;27;20612;-79
2023/08/15 12:02:55;;;;;;;5.93;5.53;;;27.50;99.90;;;;;;5136871;27;20193;-79
2023/08/15 12:05:21;;;;;;;6.05;5.60;;;27.60;99.90;;;;;;5137084;27;20263;-80
2023/08/15 12:07:48;;;;;;;6.05;5.65;;;27.60;99.90;;;;;;5136972;27;20181;-80
2023/08/15 12:10:16;;;;;;;5.38;5.07;;;27.70;99.90;;;;;;5136627;27;20169;-79
2023/08/15 12:12:44;;;;;;;6.25;5.85;;;27.70;99.90;;;;;;5136788;27;20695;-79
2023/08/15 12:15:12;;;;;;;5.70;5.30;;;27.70;99.90;;;;;;5137015;27;20169;-79
2023/08/15 12:17:39;;;;;;;5.57;5.28;;;27.60;99.90;;;;;;5137149;27;20203;-77
2023/08/15 12:20:08;;;;;;;5.38;5.07;;;27.60;99.90;;;;;;5139381;27;20216;-81
2023/08/15 12:22:34;;;;;;;5.63;5.22;;;27.60;99.90;;;;;;5141014;27;20165;-77
2023/08/15 12:24:59;;;;;;;5.82;5.43;;;27.60;99.90;;;;;;5140310;27;20170;-80
2023/08/15 12:27:26;;;;;;;6.00;5.60;;;27.60;99.90;;;;;;5136925;27;20498;-79
2023/08/15 12:29:51;;;;;;;6.10;5.72;;;27.50;99.90;;;;;;5139123;27;20169;-78
2023/08/15 12:32:18;;;;;;;6.43;6.03;;;27.60;99.90;;;;;;5136268;27;20172;-78
2023/08/15 12:34:44;;;;;;;6.25;5.85;;;27.60;99.90;;;;;;5136440;27;20176;-80
2023/08/15 12:37:10;;;;;;;6.13;5.72;;;27.60;99.90;;;;;;5136370;27;20629;-80
2023/08/15 12:39:35;;;;;;;6.28;5.70;;;27.60;99.90;;;;;;5135943;27;20208;-79
2023/08/15 12:42:02;;;;;;;6.57;5.95;;;27.60;99.90;;;;;;5140785;27;20161;-81
2023/08/15 12:44:31;;;;;;;6.10;5.65;;;27.60;99.90;;;;;;5137883;27;20647;-79
2023/08/15 12:46:57;;;;;;;5.95;5.45;;;27.60;99.90;;;;;;5136541;27;20165;-78